sensor_id;sensor_type;location;lat;lon;timestamp;P1;durP1;ratioP1;P2;durP2;ratioP2
85279;SDS011;75687;40.670;21.838;2024-03-17T00:01:48;3.70;;;2.70;;
85279;SDS011;75687;40.670;21.838;2024-03-17T00:04:18;3.70;;;2.40;;
85279;SDS011;75687;40.670;21.838;2024-03-17T00:06:49;4.60;;;3.30;;
85279;SDS011;75687;40.670;21.838;2024-03-17T00:09:20;6.50;;;3.30;;
85279;SDS011;75687;40.670;21.838;2024-03-17T00:11:52;37.00;;;15.60;;
85279;SDS011;75687;40.670;21.838;2024-03-17T00:14:23;9.40;;;4.40;;
85279;SDS011;75687;40.670;21.838;2024-03-17T00:16:55;33.80;;;13.70;;
85279;SDS011;75687;40.670;21.838;2024-03-17T00:19:25;29.80;;;13.60;;
85279;SDS011;75687;40.670;21.838;2024-03-17T00:21:55;16.10;;;8.80;;
85279;SDS011;75687;40.670;21.838;2024-03-17T00:24:25;14.30;;;6.10;;
85279;SDS011;75687;40.670;21.838;2024-03-17T00:27:02;6.90;;;3.70;;
85279;SDS011;75687;40.670;21.838;2024-03-17T00:29:32;4.00;;;3.30;;
85279;SDS011;75687;40.670;21.838;2024-03-17T00:32:02;4.90;;;2.90;;
85279;SDS011;75687;40.670;21.838;2024-03-17T00:34:33;6.50;;;3.80;;
85279;SDS011;75687;40.670;21.838;2024-03-17T00:37:03;10.30;;;3.70;;
85279;SDS011;75687;40.670;21.838;2024-03-17T00:39:33;4.50;;;3.30;;
85279;SDS011;75687;40.670;21.838;2024-03-17T00:42:03;4.20;;;3.00;;
85279;SDS011;75687;40.670;21.838;2024-03-17T00:44:33;4.10;;;2.80;;
85279;SDS011;75687;40.670;21.838;2024-03-17T00:47:03;3.70;;;3.30;;
85279;SDS011;75687;40.670;21.838;2024-03-17T00:49:33;4.10;;;3.00;;
85279;SDS011;75687;40.670;21.838;2024-03-17T00:52:03;4.00;;;3.00;;
85279;SDS011;75687;40.670;21.838;2024-03-17T00:54:34;4.40;;;3.20;;
85279;SDS011;75687;40.670;21.838;2024-03-17T00:57:04;4.20;;;2.90;;
85279;SDS011;75687;40.670;21.838;2024-03-17T00:59:34;5.80;;;3.60;;
85279;SDS011;75687;40.670;21.838;2024-03-17T01:02:04;4.00;;;2.90;;
85279;SDS011;75687;40.670;21.838;2024-03-17T01:04:34;4.50;;;3.00;;
85279;SDS011;75687;40.670;21.838;2024-03-17T01:07:04;4.20;;;3.00;;
85279;SDS011;75687;40.670;21.838;2024-03-17T01:09:35;4.10;;;2.90;;
85279;SDS011;75687;40.670;21.838;2024-03-17T01:12:05;4.40;;;3.20;;
85279;SDS011;75687;40.670;21.838;2024-03-17T01:14:35;4.00;;;3.10;;
85279;SDS011;75687;40.670;21.838;2024-03-17T01:17:05;4.90;;;3.30;;
85279;SDS011;75687;40.670;21.838;2024-03-17T01:19:35;10.80;;;5.30;;
85279;SDS011;75687;40.670;21.838;2024-03-17T01:22:06;7.00;;;4.90;;
85279;SDS011;75687;40.670;21.838;2024-03-17T01:24:36;7.00;;;4.40;;
85279;SDS011;75687;40.670;21.838;2024-03-17T01:27:09;8.50;;;5.50;;
85279;SDS011;75687;40.670;21.838;2024-03-17T01:29:42;8.50;;;5.30;;
85279;SDS011;75687;40.670;21.838;2024-03-17T01:32:12;10.10;;;6.40;;
85279;SDS011;75687;40.670;21.838;2024-03-17T01:34:42;9.10;;;5.50;;
85279;SDS011;75687;40.670;21.838;2024-03-17T01:39:41;12.50;;;7.80;;
85279;SDS011;75687;40.670;21.838;2024-03-17T01:42:11;10.40;;;8.10;;
85279;SDS011;75687;40.670;21.838;2024-03-17T01:44:42;10.20;;;6.90;;
85279;SDS011;75687;40.670;21.838;2024-03-17T01:47:12;13.50;;;9.40;;
85279;SDS011;75687;40.670;21.838;2024-03-17T01:49:42;11.90;;;8.10;;
85279;SDS011;75687;40.670;21.838;2024-03-17T01:52:12;12.70;;;7.20;;
85279;SDS011;75687;40.670;21.838;2024-03-17T01:54:42;10.70;;;7.90;;
85279;SDS011;75687;40.670;21.838;2024-03-17T01:57:13;10.90;;;6.30;;
85279;SDS011;75687;40.670;21.838;2024-03-17T01:59:43;9.80;;;6.90;;
85279;SDS011;75687;40.670;21.838;2024-03-17T02:02:13;9.50;;;7.10;;
85279;SDS011;75687;40.670;21.838;2024-03-17T02:07:13;10.20;;;6.00;;
85279;SDS011;75687;40.670;21.838;2024-03-17T02:09:44;11.70;;;6.80;;
85279;SDS011;75687;40.670;21.838;2024-03-17T02:12:15;10.20;;;7.20;;
85279;SDS011;75687;40.670;21.838;2024-03-17T02:14:45;12.00;;;7.30;;
85279;SDS011;75687;40.670;21.838;2024-03-17T02:17:15;10.90;;;7.00;;
85279;SDS011;75687;40.670;21.838;2024-03-17T02:19:45;10.30;;;7.00;;
85279;SDS011;75687;40.670;21.838;2024-03-17T02:22:15;12.50;;;7.00;;
85279;SDS011;75687;40.670;21.838;2024-03-17T02:24:45;9.50;;;6.30;;
85279;SDS011;75687;40.670;21.838;2024-03-17T02:27:15;9.80;;;7.60;;
85279;SDS011;75687;40.670;21.838;2024-03-17T02:29:45;9.80;;;6.70;;
85279;SDS011;75687;40.670;21.838;2024-03-17T02:32:15;10.80;;;6.90;;
85279;SDS011;75687;40.670;21.838;2024-03-17T02:34:45;10.40;;;7.20;;
85279;SDS011;75687;40.670;21.838;2024-03-17T02:37:15;14.30;;;7.90;;
85279;SDS011;75687;40.670;21.838;2024-03-17T02:39:45;11.50;;;7.70;;
85279;SDS011;75687;40.670;21.838;2024-03-17T02:42:15;13.70;;;7.70;;
85279;SDS011;75687;40.670;21.838;2024-03-17T02:44:45;9.50;;;6.70;;
85279;SDS011;75687;40.670;21.838;2024-03-17T02:47:15;9.50;;;7.20;;
85279;SDS011;75687;40.670;21.838;2024-03-17T02:49:47;11.90;;;8.40;;
85279;SDS011;75687;40.670;21.838;2024-03-17T02:52:18;12.30;;;8.00;;
85279;SDS011;75687;40.670;21.838;2024-03-17T02:54:48;13.20;;;8.80;;
85279;SDS011;75687;40.670;21.838;2024-03-17T02:57:24;16.50;;;10.10;;
85279;SDS011;75687;40.670;21.838;2024-03-17T02:59:57;19.10;;;8.90;;
85279;SDS011;75687;40.670;21.838;2024-03-17T03:02:27;15.00;;;9.60;;
85279;SDS011;75687;40.670;21.838;2024-03-17T03:04:58;14.60;;;9.20;;
85279;SDS011;75687;40.670;21.838;2024-03-17T03:07:29;15.30;;;8.40;;
85279;SDS011;75687;40.670;21.838;2024-03-17T03:09:59;10.50;;;7.30;;
85279;SDS011;75687;40.670;21.838;2024-03-17T03:12:29;11.10;;;7.20;;
85279;SDS011;75687;40.670;21.838;2024-03-17T03:14:59;11.60;;;7.70;;
85279;SDS011;75687;40.670;21.838;2024-03-17T03:17:29;10.60;;;6.40;;
85279;SDS011;75687;40.670;21.838;2024-03-17T03:19:59;8.50;;;6.70;;
85279;SDS011;75687;40.670;21.838;2024-03-17T03:22:30;8.80;;;6.70;;
85279;SDS011;75687;40.670;21.838;2024-03-17T03:25:00;12.40;;;7.50;;
85279;SDS011;75687;40.670;21.838;2024-03-17T03:27:30;9.50;;;6.80;;
85279;SDS011;75687;40.670;21.838;2024-03-17T03:30:01;9.70;;;6.80;;
85279;SDS011;75687;40.670;21.838;2024-03-17T03:32:34;11.10;;;7.40;;
85279;SDS011;75687;40.670;21.838;2024-03-17T03:35:06;19.40;;;10.40;;
85279;SDS011;75687;40.670;21.838;2024-03-17T03:37:37;13.20;;;8.60;;
85279;SDS011;75687;40.670;21.838;2024-03-17T03:40:08;14.00;;;7.60;;
85279;SDS011;75687;40.670;21.838;2024-03-17T03:42:44;10.40;;;8.40;;
85279;SDS011;75687;40.670;21.838;2024-03-17T03:45:15;10.30;;;7.00;;
85279;SDS011;75687;40.670;21.838;2024-03-17T03:47:45;12.60;;;7.20;;
85279;SDS011;75687;40.670;21.838;2024-03-17T03:50:16;9.90;;;6.90;;
85279;SDS011;75687;40.670;21.838;2024-03-17T03:52:47;13.00;;;6.90;;
85279;SDS011;75687;40.670;21.838;2024-03-17T03:55:18;13.80;;;6.30;;
85279;SDS011;75687;40.670;21.838;2024-03-17T03:57:48;8.70;;;5.80;;
85279;SDS011;75687;40.670;21.838;2024-03-17T04:00:20;9.20;;;5.50;;
85279;SDS011;75687;40.670;21.838;2024-03-17T04:02:52;6.90;;;3.80;;
85279;SDS011;75687;40.670;21.838;2024-03-17T04:05:22;7.50;;;5.00;;
85279;SDS011;75687;40.670;21.838;2024-03-17T04:07:52;8.60;;;5.40;;
85279;SDS011;75687;40.670;21.838;2024-03-17T04:10:22;8.80;;;5.40;;
85279;SDS011;75687;40.670;21.838;2024-03-17T04:12:52;12.00;;;8.30;;
85279;SDS011;75687;40.670;21.838;2024-03-17T04:17:51;12.60;;;7.20;;
85279;SDS011;75687;40.670;21.838;2024-03-17T04:22:49;9.60;;;6.80;;
85279;SDS011;75687;40.670;21.838;2024-03-17T04:30:43;10.50;;;6.00;;
85279;SDS011;75687;40.670;21.838;2024-03-17T04:33:13;7.40;;;5.70;;
85279;SDS011;75687;40.670;21.838;2024-03-17T04:35:44;10.80;;;6.50;;
85279;SDS011;75687;40.670;21.838;2024-03-17T04:38:14;10.50;;;6.20;;
85279;SDS011;75687;40.670;21.838;2024-03-17T04:40:47;9.00;;;6.40;;
85279;SDS011;75687;40.670;21.838;2024-03-17T04:43:17;11.40;;;7.10;;
85279;SDS011;75687;40.670;21.838;2024-03-17T04:45:48;7.50;;;5.60;;
85279;SDS011;75687;40.670;21.838;2024-03-17T04:48:18;10.30;;;6.40;;
85279;SDS011;75687;40.670;21.838;2024-03-17T04:50:48;11.40;;;6.40;;
85279;SDS011;75687;40.670;21.838;2024-03-17T04:53:18;25.20;;;11.40;;
85279;SDS011;75687;40.670;21.838;2024-03-17T04:55:48;29.20;;;15.40;;
85279;SDS011;75687;40.670;21.838;2024-03-17T04:58:28;14.30;;;9.80;;
85279;SDS011;75687;40.670;21.838;2024-03-17T05:00:59;9.50;;;6.30;;
85279;SDS011;75687;40.670;21.838;2024-03-17T05:03:33;6.90;;;5.30;;
85279;SDS011;75687;40.670;21.838;2024-03-17T05:06:04;8.10;;;4.90;;
85279;SDS011;75687;40.670;21.838;2024-03-17T05:08:34;7.30;;;5.10;;
85279;SDS011;75687;40.670;21.838;2024-03-17T05:11:05;6.60;;;5.10;;
85279;SDS011;75687;40.670;21.838;2024-03-17T05:13:35;5.40;;;4.60;;
85279;SDS011;75687;40.670;21.838;2024-03-17T05:16:06;6.40;;;4.60;;
85279;SDS011;75687;40.670;21.838;2024-03-17T05:18:36;10.40;;;7.50;;
85279;SDS011;75687;40.670;21.838;2024-03-17T05:21:07;15.70;;;10.00;;
85279;SDS011;75687;40.670;21.838;2024-03-17T05:23:37;12.00;;;7.20;;
85279;SDS011;75687;40.670;21.838;2024-03-17T05:26:07;10.20;;;7.10;;
85279;SDS011;75687;40.670;21.838;2024-03-17T05:31:05;15.70;;;8.60;;
85279;SDS011;75687;40.670;21.838;2024-03-17T05:33:35;12.80;;;8.20;;
85279;SDS011;75687;40.670;21.838;2024-03-17T05:36:06;15.90;;;9.60;;
85279;SDS011;75687;40.670;21.838;2024-03-17T05:38:36;13.60;;;8.50;;
85279;SDS011;75687;40.670;21.838;2024-03-17T05:41:07;10.60;;;8.30;;
85279;SDS011;75687;40.670;21.838;2024-03-17T05:43:38;11.60;;;7.70;;
85279;SDS011;75687;40.670;21.838;2024-03-17T05:46:08;10.00;;;6.70;;
85279;SDS011;75687;40.670;21.838;2024-03-17T05:48:38;9.90;;;6.30;;
85279;SDS011;75687;40.670;21.838;2024-03-17T05:51:09;10.50;;;6.20;;
85279;SDS011;75687;40.670;21.838;2024-03-17T05:53:40;9.30;;;6.90;;
85279;SDS011;75687;40.670;21.838;2024-03-17T05:56:12;16.00;;;10.20;;
85279;SDS011;75687;40.670;21.838;2024-03-17T05:58:43;22.70;;;12.90;;
85279;SDS011;75687;40.670;21.838;2024-03-17T06:01:14;17.60;;;11.40;;
85279;SDS011;75687;40.670;21.838;2024-03-17T06:03:44;11.40;;;7.90;;
85279;SDS011;75687;40.670;21.838;2024-03-17T06:06:15;15.40;;;10.10;;
85279;SDS011;75687;40.670;21.838;2024-03-17T06:08:44;9.70;;;6.90;;
85279;SDS011;75687;40.670;21.838;2024-03-17T06:11:15;8.20;;;6.40;;
85279;SDS011;75687;40.670;21.838;2024-03-17T06:13:44;9.70;;;7.10;;
85279;SDS011;75687;40.670;21.838;2024-03-17T06:18:43;11.30;;;7.60;;
85279;SDS011;75687;40.670;21.838;2024-03-17T06:21:13;11.20;;;7.20;;
85279;SDS011;75687;40.670;21.838;2024-03-17T06:23:43;10.50;;;7.90;;
85279;SDS011;75687;40.670;21.838;2024-03-17T06:26:13;10.70;;;7.50;;
85279;SDS011;75687;40.670;21.838;2024-03-17T06:28:43;9.70;;;8.30;;
85279;SDS011;75687;40.670;21.838;2024-03-17T06:31:13;12.50;;;9.20;;
85279;SDS011;75687;40.670;21.838;2024-03-17T06:33:43;10.60;;;6.90;;
85279;SDS011;75687;40.670;21.838;2024-03-17T06:36:13;12.00;;;7.40;;
85279;SDS011;75687;40.670;21.838;2024-03-17T06:38:43;12.20;;;7.90;;
85279;SDS011;75687;40.670;21.838;2024-03-17T06:41:13;10.00;;;7.10;;
85279;SDS011;75687;40.670;21.838;2024-03-17T06:43:43;9.20;;;6.80;;
85279;SDS011;75687;40.670;21.838;2024-03-17T06:46:13;10.40;;;6.80;;
85279;SDS011;75687;40.670;21.838;2024-03-17T06:48:43;13.50;;;9.10;;
85279;SDS011;75687;40.670;21.838;2024-03-17T06:51:13;12.70;;;8.40;;
85279;SDS011;75687;40.670;21.838;2024-03-17T06:53:44;12.80;;;8.90;;
85279;SDS011;75687;40.670;21.838;2024-03-17T06:56:13;14.00;;;9.80;;
85279;SDS011;75687;40.670;21.838;2024-03-17T06:58:43;15.30;;;11.10;;
85279;SDS011;75687;40.670;21.838;2024-03-17T07:01:13;14.00;;;10.20;;
85279;SDS011;75687;40.670;21.838;2024-03-17T07:03:43;16.80;;;10.60;;
85279;SDS011;75687;40.670;21.838;2024-03-17T07:06:13;13.10;;;9.20;;
85279;SDS011;75687;40.670;21.838;2024-03-17T07:08:43;10.70;;;7.90;;
85279;SDS011;75687;40.670;21.838;2024-03-17T07:11:13;8.90;;;6.00;;
85279;SDS011;75687;40.670;21.838;2024-03-17T07:13:45;9.20;;;5.90;;
85279;SDS011;75687;40.670;21.838;2024-03-17T07:16:17;9.60;;;5.90;;
85279;SDS011;75687;40.670;21.838;2024-03-17T07:18:49;8.20;;;6.60;;
85279;SDS011;75687;40.670;21.838;2024-03-17T07:21:18;8.30;;;6.70;;
85279;SDS011;75687;40.670;21.838;2024-03-17T07:23:48;9.80;;;7.20;;
85279;SDS011;75687;40.670;21.838;2024-03-17T07:26:18;11.80;;;8.60;;
85279;SDS011;75687;40.670;21.838;2024-03-17T07:28:48;11.80;;;8.10;;
85279;SDS011;75687;40.670;21.838;2024-03-17T07:31:18;13.30;;;9.60;;
85279;SDS011;75687;40.670;21.838;2024-03-17T07:33:50;15.50;;;10.20;;
85279;SDS011;75687;40.670;21.838;2024-03-17T07:36:20;15.70;;;11.70;;
85279;SDS011;75687;40.670;21.838;2024-03-17T07:38:50;11.30;;;8.70;;
85279;SDS011;75687;40.670;21.838;2024-03-17T07:41:20;11.80;;;9.30;;
85279;SDS011;75687;40.670;21.838;2024-03-17T07:43:52;11.30;;;8.10;;
85279;SDS011;75687;40.670;21.838;2024-03-17T07:46:22;11.00;;;7.40;;
85279;SDS011;75687;40.670;21.838;2024-03-17T07:48:52;14.50;;;7.00;;
85279;SDS011;75687;40.670;21.838;2024-03-17T07:51:22;7.80;;;6.20;;
85279;SDS011;75687;40.670;21.838;2024-03-17T07:53:51;10.30;;;6.00;;
85279;SDS011;75687;40.670;21.838;2024-03-17T07:56:21;9.60;;;5.90;;
85279;SDS011;75687;40.670;21.838;2024-03-17T07:58:52;11.20;;;7.80;;
85279;SDS011;75687;40.670;21.838;2024-03-17T08:01:22;7.70;;;6.00;;
85279;SDS011;75687;40.670;21.838;2024-03-17T08:03:52;8.60;;;6.00;;
85279;SDS011;75687;40.670;21.838;2024-03-17T08:06:23;10.70;;;7.70;;
85279;SDS011;75687;40.670;21.838;2024-03-17T08:08:53;9.60;;;6.00;;
85279;SDS011;75687;40.670;21.838;2024-03-17T08:11:23;8.50;;;6.00;;
85279;SDS011;75687;40.670;21.838;2024-03-17T08:13:53;7.10;;;4.60;;
85279;SDS011;75687;40.670;21.838;2024-03-17T08:16:23;13.60;;;8.10;;
85279;SDS011;75687;40.670;21.838;2024-03-17T08:18:53;11.60;;;7.40;;
85279;SDS011;75687;40.670;21.838;2024-03-17T08:21:23;16.80;;;11.00;;
85279;SDS011;75687;40.670;21.838;2024-03-17T08:23:53;14.40;;;8.90;;
85279;SDS011;75687;40.670;21.838;2024-03-17T08:26:23;7.90;;;6.00;;
85279;SDS011;75687;40.670;21.838;2024-03-17T08:28:53;14.30;;;9.20;;
85279;SDS011;75687;40.670;21.838;2024-03-17T08:31:23;12.40;;;8.00;;
85279;SDS011;75687;40.670;21.838;2024-03-17T08:33:53;8.00;;;6.30;;
85279;SDS011;75687;40.670;21.838;2024-03-17T08:36:24;9.80;;;7.10;;
85279;SDS011;75687;40.670;21.838;2024-03-17T08:38:53;10.40;;;7.50;;
85279;SDS011;75687;40.670;21.838;2024-03-17T08:41:24;16.90;;;7.10;;
85279;SDS011;75687;40.670;21.838;2024-03-17T08:43:54;11.90;;;8.00;;
85279;SDS011;75687;40.670;21.838;2024-03-17T08:46:24;9.90;;;6.60;;
85279;SDS011;75687;40.670;21.838;2024-03-17T08:48:54;10.30;;;7.30;;
85279;SDS011;75687;40.670;21.838;2024-03-17T08:51:24;9.50;;;6.80;;
85279;SDS011;75687;40.670;21.838;2024-03-17T08:53:55;7.80;;;6.70;;
85279;SDS011;75687;40.670;21.838;2024-03-17T08:56:25;8.40;;;6.70;;
85279;SDS011;75687;40.670;21.838;2024-03-17T08:58:55;10.20;;;7.80;;
85279;SDS011;75687;40.670;21.838;2024-03-17T09:01:25;9.10;;;6.90;;
85279;SDS011;75687;40.670;21.838;2024-03-17T09:03:55;8.70;;;7.00;;
85279;SDS011;75687;40.670;21.838;2024-03-17T09:06:29;7.50;;;6.40;;
85279;SDS011;75687;40.670;21.838;2024-03-17T09:08:58;8.90;;;6.30;;
85279;SDS011;75687;40.670;21.838;2024-03-17T09:11:30;7.50;;;5.90;;
85279;SDS011;75687;40.670;21.838;2024-03-17T09:14:00;7.60;;;5.90;;
85279;SDS011;75687;40.670;21.838;2024-03-17T09:16:30;8.00;;;6.00;;
85279;SDS011;75687;40.670;21.838;2024-03-17T09:19:00;11.10;;;8.00;;
85279;SDS011;75687;40.670;21.838;2024-03-17T09:21:30;7.80;;;6.40;;
85279;SDS011;75687;40.670;21.838;2024-03-17T09:24:01;8.10;;;6.40;;
85279;SDS011;75687;40.670;21.838;2024-03-17T09:26:31;7.70;;;6.40;;
85279;SDS011;75687;40.670;21.838;2024-03-17T09:29:01;8.00;;;5.70;;
85279;SDS011;75687;40.670;21.838;2024-03-17T09:31:31;8.70;;;6.80;;
85279;SDS011;75687;40.670;21.838;2024-03-17T09:34:03;9.30;;;6.60;;
85279;SDS011;75687;40.670;21.838;2024-03-17T09:36:33;6.70;;;5.50;;
85279;SDS011;75687;40.670;21.838;2024-03-17T09:39:03;6.00;;;5.20;;
85279;SDS011;75687;40.670;21.838;2024-03-17T09:41:33;6.40;;;5.20;;
85279;SDS011;75687;40.670;21.838;2024-03-17T09:44:04;11.00;;;6.60;;
85279;SDS011;75687;40.670;21.838;2024-03-17T09:46:37;7.30;;;5.20;;
85279;SDS011;75687;40.670;21.838;2024-03-17T09:49:09;6.60;;;4.50;;
85279;SDS011;75687;40.670;21.838;2024-03-17T09:51:43;7.20;;;5.10;;
85279;SDS011;75687;40.670;21.838;2024-03-17T09:54:16;7.30;;;5.10;;
85279;SDS011;75687;40.670;21.838;2024-03-17T09:56:47;6.10;;;5.20;;
85279;SDS011;75687;40.670;21.838;2024-03-17T09:59:18;14.80;;;6.80;;
85279;SDS011;75687;40.670;21.838;2024-03-17T10:01:48;8.80;;;6.00;;
85279;SDS011;75687;40.670;21.838;2024-03-17T10:04:31;6.30;;;5.00;;
85279;SDS011;75687;40.670;21.838;2024-03-17T10:07:01;5.70;;;4.60;;
85279;SDS011;75687;40.670;21.838;2024-03-17T10:09:31;5.30;;;4.20;;
85279;SDS011;75687;40.670;21.838;2024-03-17T10:12:04;9.50;;;6.10;;
85279;SDS011;75687;40.670;21.838;2024-03-17T10:14:38;5.40;;;4.80;;
85279;SDS011;75687;40.670;21.838;2024-03-17T10:17:08;15.00;;;7.70;;
85279;SDS011;75687;40.670;21.838;2024-03-17T10:19:39;7.90;;;5.20;;
85279;SDS011;75687;40.670;21.838;2024-03-17T10:22:19;6.60;;;5.90;;
85279;SDS011;75687;40.670;21.838;2024-03-17T10:24:49;12.00;;;6.70;;
85279;SDS011;75687;40.670;21.838;2024-03-17T10:27:28;11.60;;;6.80;;
85279;SDS011;75687;40.670;21.838;2024-03-17T10:29:58;11.40;;;7.80;;
85279;SDS011;75687;40.670;21.838;2024-03-17T10:32:28;9.40;;;6.40;;
85279;SDS011;75687;40.670;21.838;2024-03-17T10:34:59;7.00;;;4.70;;
85279;SDS011;75687;40.670;21.838;2024-03-17T10:37:29;7.30;;;5.80;;
85279;SDS011;75687;40.670;21.838;2024-03-17T10:39:59;8.10;;;5.60;;
85279;SDS011;75687;40.670;21.838;2024-03-17T10:42:31;7.20;;;5.50;;
85279;SDS011;75687;40.670;21.838;2024-03-17T10:45:04;6.60;;;5.30;;
85279;SDS011;75687;40.670;21.838;2024-03-17T10:47:37;8.10;;;6.20;;
85279;SDS011;75687;40.670;21.838;2024-03-17T10:50:08;6.30;;;5.60;;
85279;SDS011;75687;40.670;21.838;2024-03-17T10:52:45;10.50;;;8.20;;
85279;SDS011;75687;40.670;21.838;2024-03-17T10:55:22;7.00;;;5.50;;
85279;SDS011;75687;40.670;21.838;2024-03-17T10:57:53;6.40;;;5.30;;
85279;SDS011;75687;40.670;21.838;2024-03-17T11:00:26;5.90;;;4.90;;
85279;SDS011;75687;40.670;21.838;2024-03-17T11:02:57;6.30;;;5.20;;
85279;SDS011;75687;40.670;21.838;2024-03-17T11:05:28;8.50;;;6.00;;
85279;SDS011;75687;40.670;21.838;2024-03-17T11:08:00;15.00;;;8.00;;
85279;SDS011;75687;40.670;21.838;2024-03-17T11:10:31;6.70;;;5.50;;
85279;SDS011;75687;40.670;21.838;2024-03-17T11:13:04;8.00;;;5.80;;
85279;SDS011;75687;40.670;21.838;2024-03-17T11:23:56;6.40;;;5.30;;
85279;SDS011;75687;40.670;21.838;2024-03-17T11:26:31;6.80;;;5.90;;
85279;SDS011;75687;40.670;21.838;2024-03-17T11:29:03;5.80;;;5.20;;
85279;SDS011;75687;40.670;21.838;2024-03-17T11:31:39;7.80;;;5.90;;
85279;SDS011;75687;40.670;21.838;2024-03-17T11:37:03;9.30;;;6.30;;
85279;SDS011;75687;40.670;21.838;2024-03-17T11:39:52;11.50;;;7.00;;
85279;SDS011;75687;40.670;21.838;2024-03-17T11:42:26;6.30;;;4.70;;
85279;SDS011;75687;40.670;21.838;2024-03-17T11:44:56;5.10;;;4.60;;
85279;SDS011;75687;40.670;21.838;2024-03-17T11:47:34;5.40;;;3.80;;
85279;SDS011;75687;40.670;21.838;2024-03-17T11:50:06;5.80;;;4.50;;
85279;SDS011;75687;40.670;21.838;2024-03-17T11:52:40;7.20;;;5.10;;
85279;SDS011;75687;40.670;21.838;2024-03-17T11:55:16;7.20;;;5.70;;
85279;SDS011;75687;40.670;21.838;2024-03-17T11:57:46;6.90;;;5.00;;
85279;SDS011;75687;40.670;21.838;2024-03-17T12:00:22;7.30;;;5.90;;
85279;SDS011;75687;40.670;21.838;2024-03-17T12:02:52;10.80;;;6.40;;
85279;SDS011;75687;40.670;21.838;2024-03-17T12:05:27;9.10;;;5.90;;
85279;SDS011;75687;40.670;21.838;2024-03-17T12:07:58;6.30;;;4.60;;
85279;SDS011;75687;40.670;21.838;2024-03-17T12:10:28;5.70;;;4.90;;
85279;SDS011;75687;40.670;21.838;2024-03-17T12:12:58;6.30;;;5.60;;
85279;SDS011;75687;40.670;21.838;2024-03-17T12:15:28;6.20;;;5.40;;
85279;SDS011;75687;40.670;21.838;2024-03-17T12:17:59;6.90;;;4.80;;
85279;SDS011;75687;40.670;21.838;2024-03-17T12:20:31;6.40;;;5.10;;
85279;SDS011;75687;40.670;21.838;2024-03-17T12:23:01;5.70;;;4.80;;
85279;SDS011;75687;40.670;21.838;2024-03-17T12:25:31;6.90;;;5.00;;
85279;SDS011;75687;40.670;21.838;2024-03-17T12:28:00;6.00;;;5.00;;
85279;SDS011;75687;40.670;21.838;2024-03-17T12:30:33;5.90;;;4.70;;
85279;SDS011;75687;40.670;21.838;2024-03-17T12:33:03;7.20;;;5.60;;
85279;SDS011;75687;40.670;21.838;2024-03-17T12:35:34;7.70;;;5.30;;
85279;SDS011;75687;40.670;21.838;2024-03-17T12:38:04;5.60;;;5.00;;
85279;SDS011;75687;40.670;21.838;2024-03-17T12:40:50;6.00;;;5.30;;
85279;SDS011;75687;40.670;21.838;2024-03-17T12:43:20;6.90;;;5.50;;
85279;SDS011;75687;40.670;21.838;2024-03-17T12:45:50;7.10;;;5.50;;
85279;SDS011;75687;40.670;21.838;2024-03-17T12:48:25;6.20;;;5.50;;
85279;SDS011;75687;40.670;21.838;2024-03-17T12:50:55;6.10;;;5.50;;
85279;SDS011;75687;40.670;21.838;2024-03-17T12:53:25;6.40;;;5.30;;
85279;SDS011;75687;40.670;21.838;2024-03-17T12:55:55;6.50;;;5.60;;
85279;SDS011;75687;40.670;21.838;2024-03-17T12:58:42;6.80;;;5.20;;
85279;SDS011;75687;40.670;21.838;2024-03-17T13:01:30;5.10;;;4.60;;
85279;SDS011;75687;40.670;21.838;2024-03-17T13:04:05;5.80;;;4.50;;
85279;SDS011;75687;40.670;21.838;2024-03-17T13:06:35;5.10;;;4.30;;
85279;SDS011;75687;40.670;21.838;2024-03-17T13:09:06;5.60;;;5.00;;
85279;SDS011;75687;40.670;21.838;2024-03-17T13:11:38;6.40;;;4.50;;
85279;SDS011;75687;40.670;21.838;2024-03-17T13:14:07;5.00;;;4.40;;
85279;SDS011;75687;40.670;21.838;2024-03-17T13:16:42;7.00;;;4.50;;
85279;SDS011;75687;40.670;21.838;2024-03-17T13:19:14;5.10;;;3.80;;
85279;SDS011;75687;40.670;21.838;2024-03-17T13:21:46;5.10;;;3.90;;
85279;SDS011;75687;40.670;21.838;2024-03-17T13:24:16;5.10;;;4.10;;
85279;SDS011;75687;40.670;21.838;2024-03-17T13:26:47;5.30;;;4.80;;
85279;SDS011;75687;40.670;21.838;2024-03-17T13:29:18;7.60;;;4.70;;
85279;SDS011;75687;40.670;21.838;2024-03-17T13:31:49;5.20;;;4.60;;
85279;SDS011;75687;40.670;21.838;2024-03-17T13:34:18;6.60;;;5.40;;
85279;SDS011;75687;40.670;21.838;2024-03-17T13:36:53;6.00;;;4.80;;
85279;SDS011;75687;40.670;21.838;2024-03-17T13:39:26;6.20;;;4.40;;
85279;SDS011;75687;40.670;21.838;2024-03-17T13:42:00;5.80;;;5.10;;
85279;SDS011;75687;40.670;21.838;2024-03-17T13:44:31;6.10;;;4.70;;
85279;SDS011;75687;40.670;21.838;2024-03-17T13:47:01;8.00;;;5.80;;
85279;SDS011;75687;40.670;21.838;2024-03-17T13:49:31;5.90;;;4.50;;
85279;SDS011;75687;40.670;21.838;2024-03-17T13:52:01;5.90;;;4.50;;
85279;SDS011;75687;40.670;21.838;2024-03-17T13:54:32;4.00;;;3.60;;
85279;SDS011;75687;40.670;21.838;2024-03-17T13:57:02;6.20;;;5.10;;
85279;SDS011;75687;40.670;21.838;2024-03-17T13:59:32;6.00;;;4.60;;
85279;SDS011;75687;40.670;21.838;2024-03-17T14:02:06;7.00;;;4.90;;
85279;SDS011;75687;40.670;21.838;2024-03-17T14:04:40;7.00;;;3.90;;
85279;SDS011;75687;40.670;21.838;2024-03-17T14:07:11;4.00;;;3.40;;
85279;SDS011;75687;40.670;21.838;2024-03-17T14:09:41;3.50;;;3.20;;
85279;SDS011;75687;40.670;21.838;2024-03-17T14:12:10;4.90;;;3.50;;
85279;SDS011;75687;40.670;21.838;2024-03-17T14:14:41;5.50;;;3.60;;
85279;SDS011;75687;40.670;21.838;2024-03-17T14:17:12;6.00;;;4.40;;
85279;SDS011;75687;40.670;21.838;2024-03-17T14:19:42;5.50;;;4.40;;
85279;SDS011;75687;40.670;21.838;2024-03-17T14:22:12;9.20;;;4.70;;
85279;SDS011;75687;40.670;21.838;2024-03-17T14:24:41;5.50;;;4.40;;
85279;SDS011;75687;40.670;21.838;2024-03-17T14:27:12;6.60;;;5.20;;
85279;SDS011;75687;40.670;21.838;2024-03-17T14:29:42;8.00;;;5.00;;
85279;SDS011;75687;40.670;21.838;2024-03-17T14:32:12;8.00;;;5.10;;
85279;SDS011;75687;40.670;21.838;2024-03-17T14:34:42;5.90;;;4.20;;
85279;SDS011;75687;40.670;21.838;2024-03-17T14:37:12;6.60;;;4.50;;
85279;SDS011;75687;40.670;21.838;2024-03-17T14:39:42;6.50;;;3.70;;
85279;SDS011;75687;40.670;21.838;2024-03-17T14:42:12;7.40;;;5.40;;
85279;SDS011;75687;40.670;21.838;2024-03-17T14:44:42;6.00;;;3.90;;
85279;SDS011;75687;40.670;21.838;2024-03-17T14:47:12;6.30;;;3.10;;
85279;SDS011;75687;40.670;21.838;2024-03-17T14:49:42;5.10;;;3.80;;
85279;SDS011;75687;40.670;21.838;2024-03-17T14:52:13;4.30;;;3.10;;
85279;SDS011;75687;40.670;21.838;2024-03-17T14:54:43;4.90;;;3.30;;
85279;SDS011;75687;40.670;21.838;2024-03-17T14:57:13;5.20;;;3.90;;
85279;SDS011;75687;40.670;21.838;2024-03-17T14:59:46;8.00;;;4.00;;
85279;SDS011;75687;40.670;21.838;2024-03-17T15:02:16;6.50;;;3.60;;
85279;SDS011;75687;40.670;21.838;2024-03-17T15:04:46;4.50;;;3.00;;
85279;SDS011;75687;40.670;21.838;2024-03-17T15:07:16;3.60;;;2.80;;
85279;SDS011;75687;40.670;21.838;2024-03-17T15:09:46;3.80;;;2.90;;
85279;SDS011;75687;40.670;21.838;2024-03-17T15:12:16;4.20;;;3.30;;
85279;SDS011;75687;40.670;21.838;2024-03-17T15:14:47;4.40;;;3.10;;
85279;SDS011;75687;40.670;21.838;2024-03-17T15:17:17;4.60;;;3.40;;
85279;SDS011;75687;40.670;21.838;2024-03-17T15:19:47;8.00;;;3.40;;
85279;SDS011;75687;40.670;21.838;2024-03-17T15:22:17;5.60;;;3.60;;